createdAt,value
2023-05-10T00:01:05.063Z,6.67
2023-05-10T00:06:09.952Z,13.33
2023-05-10T00:11:15.100Z,12.00
2023-05-10T00:16:20.102Z,6.00
2023-05-10T00:21:25.153Z,12.67
2023-05-10T00:26:30.028Z,13.00
2023-05-10T00:31:35.927Z,12.33
2023-05-10T00:36:41.028Z,13.50
2023-05-10T00:41:45.963Z,11.50
2023-05-10T00:46:52.228Z,13.75
2023-05-10T00:51:57.522Z,13.25
2023-05-10T00:57:02.546Z,12.00
2023-05-10T01:02:08.967Z,12.00
2023-05-10T01:07:14.031Z,10.00
2023-05-10T01:12:19.125Z,9.00
2023-05-10T01:17:25.790Z,10.00
2023-05-10T01:22:52.648Z,15.00
2023-05-10T01:28:29.753Z,8.50
2023-05-10T01:34:14.322Z,12.67
2023-05-10T01:39:39.240Z,13.50
2023-05-10T01:44:59.774Z,11.33
2023-05-10T01:50:07.733Z,12.67
2023-05-10T01:55:17.459Z,13.00
2023-05-10T02:00:24.191Z,13.50
2023-05-10T02:05:31.558Z,13.50
2023-05-10T02:10:42.031Z,16.00
2023-05-10T02:15:51.607Z,15.25
2023-05-10T02:20:58.311Z,13.33
2023-05-10T02:26:05.215Z,16.75
2023-05-10T02:31:13.537Z,15.50
2023-05-10T02:41:27.241Z,18.00
2023-05-10T02:46:33.498Z,17.25
2023-05-10T02:51:44.825Z,12.50
2023-05-10T02:56:57.514Z,12.00
2023-05-10T03:02:04.416Z,15.75
2023-05-10T03:07:11.156Z,14.33
2023-05-10T03:12:19.746Z,20.50
2023-05-10T03:17:43.970Z,18.00
2023-05-10T03:22:56.114Z,15.00
2023-05-10T03:28:05.510Z,13.00
2023-05-10T03:33:13.062Z,18.25
2023-05-10T03:38:21.846Z,21.00
2023-05-10T03:43:27.404Z,17.00
2023-05-10T03:48:33.864Z,17.33
2023-05-10T03:53:39.213Z,15.67
2023-05-10T03:58:45.110Z,23.75
2023-05-10T04:03:50.797Z,27.50
2023-05-10T04:08:57.510Z,23.00
2023-05-10T04:14:03.155Z,24.00
2023-05-10T04:19:09.335Z,21.25
2023-05-10T04:24:15.504Z,19.00
2023-05-10T04:29:20.641Z,19.00
2023-05-10T04:34:25.822Z,23.00
2023-05-10T04:39:31.413Z,28.25
2023-05-10T04:44:37.878Z,22.75
2023-05-10T04:54:49.655Z,23.75
2023-05-10T04:59:59.440Z,24.33
2023-05-10T05:05:05.011Z,20.50
2023-05-10T05:10:11.299Z,25.00
2023-05-10T05:15:18.952Z,28.50
2023-05-10T05:20:25.572Z,25.75
2023-05-10T05:25:31.257Z,27.00
2023-05-10T05:30:36.699Z,26.67
2023-05-10T05:35:42.362Z,26.25
2023-05-10T05:40:48.969Z,29.75
2023-05-10T05:51:01.907Z,24.50
2023-05-10T05:56:08.256Z,30.25
2023-05-10T06:01:13.533Z,29.00
2023-05-10T06:06:19.058Z,30.25
2023-05-10T06:16:29.658Z,26.67
2023-05-10T06:21:34.942Z,28.75
2023-05-10T06:26:40.448Z,26.50
2023-05-10T06:31:45.997Z,23.50
2023-05-10T06:36:51.790Z,26.33
2023-05-10T06:41:57.211Z,21.33
2023-05-10T06:47:07.023Z,20.25
2023-05-10T06:52:12.549Z,18.50
2023-05-10T06:57:30.628Z,21.00
2023-05-10T07:02:37.426Z,15.75
2023-05-10T07:07:42.848Z,18.50
2023-05-10T07:12:48.623Z,16.33
2023-05-10T07:17:54.394Z,29.33
2023-05-10T07:22:59.686Z,23.00
2023-05-10T07:28:05.170Z,26.25
2023-05-10T07:33:11.910Z,23.50
2023-05-10T07:38:17.279Z,21.75
2023-05-10T07:43:22.751Z,27.00
2023-05-10T07:48:28.868Z,28.75
2023-05-10T07:53:34.257Z,22.75
2023-05-10T07:58:39.667Z,21.33
2023-05-10T08:03:45.096Z,22.50
2023-05-10T08:08:52.645Z,19.75
2023-05-10T08:13:58.152Z,16.50
2023-05-10T08:19:03.581Z,18.00
2023-05-10T08:24:09.229Z,16.50
2023-05-10T08:29:14.717Z,14.75
2023-05-10T08:34:20.052Z,15.50
2023-05-10T08:39:30.346Z,19.50
2023-05-10T08:44:39.057Z,16.75
2023-05-10T08:49:46.341Z,13.00
2023-05-10T08:54:51.994Z,19.25
2023-05-10T08:59:57.415Z,16.33
2023-05-10T09:05:03.641Z,15.00
2023-05-10T09:10:11.082Z,18.00
2023-05-10T09:20:24.954Z,16.00
2023-05-10T09:25:30.508Z,17.25
2023-05-10T09:30:36.432Z,13.67
2023-05-10T09:35:42.363Z,13.25
2023-05-10T09:41:00.120Z,18.67
2023-05-10T09:46:13.691Z,17.50
2023-05-10T09:51:27.354Z,16.00
2023-05-10T09:56:42.250Z,15.00
2023-05-10T10:01:53.701Z,14.50
2023-05-10T10:07:06.695Z,16.00
2023-05-10T10:12:11.892Z,20.50
2023-05-10T10:17:17.790Z,17.67
2023-05-10T10:22:22.855Z,12.75
2023-05-10T10:27:45.900Z,15.50
2023-05-10T10:33:16.599Z,14.50
2023-05-10T10:39:01.924Z,16.75
2023-05-10T10:44:24.924Z,21.00
2023-05-10T10:49:30.903Z,23.67
2023-05-10T10:54:36.025Z,17.25
2023-05-10T10:59:48.556Z,23.00
2023-05-10T11:04:53.713Z,17.33
2023-05-10T11:10:06.487Z,17.33
2023-05-10T11:15:12.721Z,23.50
2023-05-10T11:20:26.153Z,24.33
2023-05-10T11:25:30.996Z,24.75
2023-05-10T11:30:37.043Z,26.50
2023-05-10T11:35:43.686Z,22.25
2023-05-10T11:40:49.795Z,16.67
2023-05-10T11:45:55.855Z,20.25
2023-05-10T11:51:01.402Z,20.67
2023-05-10T11:56:08.481Z,17.67
2023-05-10T12:01:14.053Z,17.67
2023-05-10T12:06:19.985Z,25.00
2023-05-10T12:11:29.417Z,16.50
2023-05-10T12:16:36.286Z,21.50
2023-05-10T12:21:41.334Z,17.67
2023-05-10T12:32:08.471Z,20.25
2023-05-10T12:37:13.561Z,20.67
2023-05-10T12:42:19.194Z,20.67
2023-05-10T12:47:24.150Z,21.33
2023-05-10T12:52:29.214Z,23.00
2023-05-10T12:57:34.175Z,21.00
2023-05-10T13:02:39.115Z,17.00
2023-05-10T13:07:46.187Z,17.00
2023-05-10T13:12:51.325Z,17.50
2023-05-10T13:17:56.952Z,13.67
2023-05-10T13:23:02.865Z,17.50
2023-05-10T13:28:08.052Z,18.00
2023-05-10T13:33:12.981Z,24.75
2023-05-10T13:38:18.364Z,21.67
2023-05-10T13:43:24.377Z,18.00
2023-05-10T13:48:30.074Z,22.00
2023-05-10T13:53:35.464Z,14.33
2023-05-10T13:58:40.472Z,21.67
2023-05-10T14:03:51.540Z,20.75
2023-05-10T14:08:56.542Z,21.50
2023-05-10T14:14:01.829Z,18.67
2023-05-10T14:19:07.245Z,15.00
2023-05-10T14:24:12.531Z,16.67
2023-05-10T14:29:17.779Z,22.00
2023-05-10T14:34:22.953Z,20.00
2023-05-10T14:39:31.852Z,13.00
2023-05-10T14:44:36.752Z,20.75
2023-05-10T14:49:41.734Z,17.50
2023-05-10T14:54:46.774Z,18.25
2023-05-10T14:59:51.873Z,17.67
2023-05-10T15:04:57.499Z,17.50
2023-05-10T15:10:04.096Z,25.00
2023-05-10T15:15:09.878Z,18.75
2023-05-10T15:25:21.169Z,24.00
2023-05-10T15:30:26.481Z,23.50
2023-05-10T15:35:31.317Z,19.75
2023-05-10T15:40:36.380Z,16.00
2023-05-10T15:45:41.295Z,16.75
2023-05-10T15:50:46.284Z,19.00
2023-05-10T15:55:51.603Z,16.00
2023-05-10T16:00:56.836Z,20.00
2023-05-10T16:11:06.614Z,18.00
2023-05-10T16:16:11.517Z,18.33
2023-05-10T16:21:16.910Z,22.25
2023-05-10T16:26:23.126Z,19.00
2023-05-10T16:31:28.162Z,23.50
2023-05-10T16:36:34.030Z,23.25
2023-05-10T16:41:39.053Z,22.75
2023-05-10T16:46:44.969Z,28.00
2023-05-10T16:51:49.801Z,31.33
2023-05-10T16:56:54.653Z,29.25
2023-05-10T17:01:59.695Z,19.33
2023-05-10T17:07:04.960Z,20.00
2023-05-10T17:12:09.752Z,20.00
2023-05-10T17:17:14.976Z,19.33
2023-05-10T17:22:19.929Z,27.33
2023-05-10T17:27:25.015Z,24.50
2023-05-10T17:32:29.768Z,22.75
2023-05-10T17:37:35.033Z,25.25
2023-05-10T17:42:39.958Z,26.75
2023-05-10T17:47:45.110Z,26.67
2023-05-10T17:52:49.955Z,21.33
2023-05-10T17:57:54.693Z,26.50
2023-05-10T18:02:59.659Z,22.67
2023-05-10T18:08:05.523Z,23.50
2023-05-10T18:13:10.574Z,19.00
2023-05-10T18:18:15.378Z,23.67
2023-05-10T18:23:21.006Z,24.50
2023-05-10T18:28:26.009Z,24.25
2023-05-10T18:33:30.933Z,18.50
2023-05-10T18:38:35.806Z,24.00
2023-05-10T18:43:40.818Z,21.00
2023-05-10T18:48:45.715Z,23.00
2023-05-10T18:53:51.128Z,24.33
2023-05-10T18:58:56.006Z,29.00
2023-05-10T19:04:01.201Z,28.75
2023-05-10T19:09:06.274Z,28.25
2023-05-10T19:14:11.657Z,28.00
2023-05-10T19:19:16.560Z,23.25
2023-05-10T19:24:25.942Z,26.00
2023-05-10T19:29:31.179Z,28.00
2023-05-10T19:34:36.148Z,27.33
2023-05-10T19:39:41.065Z,19.00
2023-05-10T19:44:46.173Z,26.75
2023-05-10T19:49:50.932Z,25.67
2023-05-10T19:54:55.745Z,25.25
2023-05-10T20:00:00.697Z,25.67
2023-05-10T20:05:06.008Z,26.00
2023-05-10T20:15:16.237Z,29.00
2023-05-10T20:20:22.140Z,25.50
2023-05-10T20:25:27.279Z,24.00
2023-05-10T20:35:37.575Z,24.50
2023-05-10T20:40:42.729Z,30.00
2023-05-10T20:45:47.863Z,33.75
2023-05-10T20:50:52.991Z,31.00
2023-05-10T20:55:58.014Z,28.25
2023-05-10T21:06:07.929Z,30.75
2023-05-10T21:11:12.772Z,28.50
2023-05-10T21:16:18.125Z,41.67
2023-05-10T21:21:24.642Z,33.67
2023-05-10T21:26:30.027Z,27.00
2023-05-10T21:31:35.333Z,42.50
2023-05-10T21:36:40.413Z,36.50
2023-05-10T21:41:45.388Z,28.00
2023-05-10T21:46:50.328Z,36.50
2023-05-10T21:51:55.354Z,74.25
2023-05-10T21:57:00.347Z,46.00
2023-05-10T22:02:05.366Z,32.00
2023-05-10T22:07:10.238Z,32.00
2023-05-10T22:12:16.206Z,29.67
2023-05-10T22:17:21.118Z,33.33
2023-05-10T22:22:26.052Z,30.00
2023-05-10T22:27:31.018Z,37.00
2023-05-10T22:37:40.295Z,29.67
2023-05-10T22:42:45.266Z,34.75
2023-05-10T22:47:50.191Z,30.00
2023-05-10T22:52:55.175Z,31.67
2023-05-10T22:58:00.203Z,30.50
2023-05-10T23:03:05.422Z,33.00
2023-05-10T23:08:10.392Z,32.75
2023-05-10T23:13:15.966Z,32.33
2023-05-10T23:18:20.916Z,38.00
2023-05-10T23:23:25.722Z,31.67
2023-05-10T23:28:30.747Z,30.25
2023-05-10T23:33:35.824Z,38.00
2023-05-10T23:38:41.093Z,37.00
2023-05-10T23:43:47.675Z,38.00
2023-05-10T23:48:52.698Z,37.25
2023-05-10T23:53:57.654Z,38.33
2023-05-10T23:59:04.026Z,38.00
